N869RS KMIA-TKPK
Flight info
| Callsign | N869RS |
|---|---|
| Flight time | 4h 4m |
| Altitude | 310 |
| Route | MIA2 GWAVA GLAMS KFFER HAGIT Y421 MEEGL DANDE G633 GABAR |
| Aircraft | TBM9/L-VGDW/C |
Departure
| Time | 2026-05-03 20:35 |
|---|---|
| Airport | Miami International Airport (KMIA) |
Arrival
| Time | 2026-05-04 00:39 |
|---|---|
| Airport | Robert L. Bradshaw International Airport (TKPK) |
| Time | Latitude | Longitude | Altitude | Speed | Heading |
|---|---|---|---|---|---|
| 2026-05-03 20:15 | 25.80565 | -80.29055 | 11 ft | 0 kts | 178° |
| 2026-05-03 20:28 | 25.80532 | -80.29054 | 10 ft | 8 kts | 181° |
| 2026-05-03 20:28 | 25.80465 | -80.29071 | 11 ft | 11 kts | 219° |
| 2026-05-03 20:28 | 25.80442 | -80.29131 | 12 ft | 8 kts | 272° |
| 2026-05-03 20:29 | 25.80440 | -80.29186 | 13 ft | 7 kts | 262° |
| 2026-05-03 20:29 | 25.80433 | -80.29232 | 14 ft | 6 kts | 271° |
| 2026-05-03 20:29 | 25.80435 | -80.29279 | 14 ft | 6 kts | 271° |
| 2026-05-03 20:29 | 25.80433 | -80.29334 | 13 ft | 8 kts | 268° |
| 2026-05-03 20:30 | 25.80431 | -80.29402 | 12 ft | 9 kts | 269° |
| 2026-05-03 20:30 | 25.80428 | -80.29479 | 12 ft | 10 kts | 265° |
| 2026-05-03 20:30 | 25.80426 | -80.29556 | 13 ft | 10 kts | 264° |
| 2026-05-03 20:30 | 25.80421 | -80.29626 | 14 ft | 8 kts | 268° |
| 2026-05-03 20:31 | 25.80420 | -80.29688 | 15 ft | 8 kts | 267° |
| 2026-05-03 20:31 | 25.80417 | -80.29749 | 15 ft | 8 kts | 266° |
| 2026-05-03 20:31 | 25.80415 | -80.29816 | 15 ft | 10 kts | 268° |
| 2026-05-03 20:31 | 25.80411 | -80.29897 | 13 ft | 11 kts | 267° |
| 2026-05-03 20:32 | 25.80407 | -80.29987 | 13 ft | 12 kts | 268° |
| 2026-05-03 20:32 | 25.80404 | -80.30079 | 13 ft | 12 kts | 268° |
| 2026-05-03 20:32 | 25.80379 | -80.30142 | 13 ft | 0 kts | 205° |
| 2026-05-03 20:33 | 25.80377 | -80.30142 | 13 ft | 1 kts | 202° |
| 2026-05-03 20:33 | 25.80339 | -80.30146 | 13 ft | 9 kts | 177° |
| 2026-05-03 20:33 | 25.80292 | -80.30126 | 12 ft | 0 kts | 86° |
| 2026-05-03 20:34 | 25.80297 | -80.30028 | 13 ft | 39 kts | 86° |
| 2026-05-03 20:34 | 25.80319 | -80.29511 | 13 ft | 93 kts | 88° |
| 2026-05-03 20:34 | 25.80314 | -80.28720 | 259 ft | 111 kts | 87° |
| 2026-05-03 20:35 | 25.80364 | -80.27845 | 636 ft | 115 kts | 70° |
| 2026-05-03 20:35 | 25.80828 | -80.27126 | 1054 ft | 113 kts | 48° |
| 2026-05-03 20:35 | 25.81316 | -80.26468 | 1469 ft | 112 kts | 52° |
| 2026-05-03 20:35 | 25.81804 | -80.25762 | 1790 ft | 117 kts | 52° |
| 2026-05-03 20:36 | 25.82305 | -80.25030 | 2136 ft | 120 kts | 51° |
| 2026-05-03 20:36 | 25.82793 | -80.24270 | 2504 ft | 121 kts | 54° |
| 2026-05-03 20:36 | 25.83000 | -80.23367 | 2786 ft | 127 kts | 96° |
| 2026-05-03 20:36 | 25.83039 | -80.22348 | 2860 ft | 150 kts | 83° |
| 2026-05-03 20:37 | 25.83162 | -80.21098 | 2868 ft | 171 kts | 84° |
| 2026-05-03 20:37 | 25.83311 | -80.19769 | 3067 ft | 178 kts | 82° |
| 2026-05-03 20:37 | 25.83479 | -80.18366 | 3082 ft | 192 kts | 83° |
| 2026-05-03 20:37 | 25.83634 | -80.16847 | 2961 ft | 207 kts | 82° |
| 2026-05-03 20:38 | 25.83843 | -80.15226 | 2896 ft | 212 kts | 82° |
| 2026-05-03 20:38 | 25.84064 | -80.13589 | 2894 ft | 213 kts | 82° |
| 2026-05-03 20:38 | 25.84224 | -80.11974 | 3031 ft | 207 kts | 86° |
| 2026-05-03 20:38 | 25.84311 | -80.10387 | 3121 ft | 206 kts | 86° |
| 2026-05-03 20:39 | 25.84412 | -80.08782 | 3039 ft | 213 kts | 86° |
| 2026-05-03 20:39 | 25.84554 | -80.07131 | 2998 ft | 214 kts | 83° |
| 2026-05-03 20:39 | 25.84732 | -80.05490 | 3043 ft | 215 kts | 84° |
| 2026-05-03 20:39 | 25.84919 | -80.03830 | 3030 ft | 218 kts | 82° |
| 2026-05-03 20:40 | 25.85046 | -80.02155 | 3067 ft | 219 kts | 95° |
| 2026-05-03 20:40 | 25.84515 | -80.00605 | 2952 ft | 222 kts | 135° |
| 2026-05-03 20:40 | 25.83148 | -79.99959 | 2841 ft | 219 kts | 181° |
| 2026-05-03 20:40 | 25.81657 | -79.99794 | 2894 ft | 215 kts | 173° |
| 2026-05-03 20:41 | 25.80211 | -79.99560 | 3013 ft | 209 kts | 174° |
| 2026-05-03 20:41 | 25.78755 | -79.99326 | 2992 ft | 211 kts | 173° |
| 2026-05-03 20:41 | 25.77302 | -79.99062 | 2999 ft | 212 kts | 173° |
| 2026-05-03 20:41 | 25.75840 | -79.98787 | 3004 ft | 213 kts | 172° |
| 2026-05-03 20:42 | 25.74379 | -79.98491 | 2999 ft | 214 kts | 172° |
| 2026-05-03 20:42 | 25.72908 | -79.98213 | 3000 ft | 215 kts | 174° |
| 2026-05-03 20:42 | 25.71412 | -79.98067 | 3000 ft | 215 kts | 184° |
| 2026-05-03 20:42 | 25.69915 | -79.98128 | 2998 ft | 215 kts | 184° |
| 2026-05-03 20:43 | 25.68445 | -79.98103 | 2997 ft | 215 kts | 180° |
| 2026-05-03 20:43 | 25.66965 | -79.98030 | 3124 ft | 207 kts | 180° |
| 2026-05-03 20:43 | 25.65607 | -79.97966 | 3659 ft | 183 kts | 181° |
| 2026-05-03 20:43 | 25.64415 | -79.97914 | 4273 ft | 163 kts | 182° |
| 2026-05-03 20:44 | 25.63277 | -79.97860 | 4582 ft | 165 kts | 181° |
| 2026-05-03 20:44 | 25.62130 | -79.97816 | 4888 ft | 165 kts | 182° |
| 2026-05-03 20:44 | 25.60985 | -79.97779 | 5225 ft | 165 kts | 183° |
| 2026-05-03 20:44 | 25.59834 | -79.97742 | 5545 ft | 166 kts | 183° |
| 2026-05-03 20:45 | 25.58691 | -79.97700 | 5898 ft | 166 kts | 183° |
| 2026-05-03 20:45 | 25.57538 | -79.97659 | 6203 ft | 166 kts | 183° |
| 2026-05-03 20:45 | 25.56381 | -79.97617 | 6501 ft | 167 kts | 183° |
| 2026-05-03 20:45 | 25.55220 | -79.97574 | 6792 ft | 167 kts | 183° |
| 2026-05-03 20:46 | 25.54051 | -79.97532 | 7059 ft | 169 kts | 183° |
| 2026-05-03 20:46 | 25.52876 | -79.97489 | 7349 ft | 169 kts | 183° |
| 2026-05-03 20:46 | 25.51709 | -79.97446 | 7629 ft | 169 kts | 184° |
| 2026-05-03 20:46 | 25.50525 | -79.97403 | 7905 ft | 171 kts | 184° |
| 2026-05-03 20:47 | 25.49337 | -79.97360 | 8194 ft | 171 kts | 184° |
| 2026-05-03 20:47 | 25.48143 | -79.97316 | 8474 ft | 172 kts | 184° |
| 2026-05-03 20:47 | 25.46944 | -79.97273 | 8753 ft | 173 kts | 184° |
| 2026-05-03 20:47 | 25.45734 | -79.97228 | 9036 ft | 174 kts | 184° |
| 2026-05-03 20:48 | 25.44520 | -79.97184 | 9324 ft | 175 kts | 184° |
| 2026-05-03 20:48 | 25.43714 | -79.97155 | 9516 ft | 175 kts | 184° |
| 2026-05-03 20:48 | 25.42486 | -79.97110 | 9812 ft | 176 kts | 184° |
| 2026-05-03 20:48 | 25.41256 | -79.97065 | 10074 ft | 177 kts | 184° |
| 2026-05-03 20:49 | 25.40021 | -79.97019 | 10336 ft | 178 kts | 184° |
| 2026-05-03 20:49 | 25.38780 | -79.96969 | 10616 ft | 178 kts | 185° |
| 2026-05-03 20:49 | 25.37538 | -79.96948 | 10936 ft | 179 kts | 186° |
| 2026-05-03 20:49 | 25.36239 | -79.96911 | 11060 ft | 192 kts | 185° |
| 2026-05-03 20:50 | 25.34949 | -79.96849 | 11635 ft | 174 kts | 184° |
| 2026-05-03 20:50 | 25.33781 | -79.96794 | 12150 ft | 167 kts | 185° |
| 2026-05-03 20:50 | 25.32607 | -79.96756 | 12477 ft | 169 kts | 186° |
| 2026-05-03 20:50 | 25.31428 | -79.96715 | 12847 ft | 170 kts | 185° |
| 2026-05-03 20:51 | 25.30259 | -79.96673 | 13199 ft | 171 kts | 185° |
| 2026-05-03 20:51 | 25.29063 | -79.96629 | 13554 ft | 172 kts | 185° |
| 2026-05-03 20:51 | 25.27865 | -79.96586 | 13906 ft | 172 kts | 185° |
| 2026-05-03 20:51 | 25.26662 | -79.96395 | 14224 ft | 180 kts | 168° |
| 2026-05-03 20:52 | 25.25532 | -79.95747 | 14535 ft | 186 kts | 154° |
| 2026-05-03 20:52 | 25.24445 | -79.94965 | 14852 ft | 187 kts | 155° |
| 2026-05-03 20:52 | 25.23346 | -79.94190 | 15175 ft | 188 kts | 155° |
| 2026-05-03 20:52 | 25.22246 | -79.93410 | 15499 ft | 189 kts | 155° |
| 2026-05-03 20:53 | 25.21140 | -79.92625 | 15816 ft | 190 kts | 155° |
| 2026-05-03 20:53 | 25.20026 | -79.91835 | 16143 ft | 190 kts | 155° |
| 2026-05-03 20:53 | 25.18907 | -79.91041 | 16460 ft | 192 kts | 155° |
| 2026-05-03 20:53 | 25.17780 | -79.90242 | 16791 ft | 193 kts | 155° |
| 2026-05-03 20:54 | 25.16647 | -79.89439 | 17120 ft | 194 kts | 155° |
| 2026-05-03 20:54 | 25.14376 | -79.87830 | 17771 ft | 196 kts | 156° |
| 2026-05-03 20:54 | 25.13225 | -79.87015 | 18100 ft | 197 kts | 156° |
| 2026-05-03 20:55 | 25.12069 | -79.86196 | 18407 ft | 198 kts | 156° |
| 2026-05-03 20:55 | 25.10906 | -79.85372 | 18690 ft | 199 kts | 156° |
| 2026-05-03 20:55 | 25.09735 | -79.84544 | 18974 ft | 200 kts | 156° |
| 2026-05-03 20:55 | 25.08556 | -79.83709 | 19256 ft | 201 kts | 156° |
| 2026-05-03 20:56 | 25.07375 | -79.82873 | 19540 ft | 202 kts | 156° |
| 2026-05-03 20:56 | 25.06185 | -79.82032 | 19816 ft | 204 kts | 156° |
| 2026-05-03 20:56 | 25.04990 | -79.81187 | 20102 ft | 205 kts | 157° |
| 2026-05-03 20:56 | 25.03802 | -79.80346 | 20386 ft | 206 kts | 157° |
| 2026-05-03 20:57 | 25.02582 | -79.79474 | 20668 ft | 208 kts | 155° |
| 2026-05-03 20:57 | 25.01379 | -79.78596 | 20941 ft | 208 kts | 156° |
| 2026-05-03 20:57 | 25.00169 | -79.77748 | 21224 ft | 209 kts | 157° |
| 2026-05-03 20:57 | 24.98939 | -79.76891 | 21499 ft | 210 kts | 156° |
| 2026-05-03 20:58 | 24.97703 | -79.76020 | 21778 ft | 211 kts | 156° |
| 2026-05-03 20:58 | 24.96460 | -79.75142 | 22055 ft | 212 kts | 157° |
| 2026-05-03 20:58 | 24.95214 | -79.74263 | 22332 ft | 213 kts | 157° |
| 2026-05-03 20:58 | 24.93958 | -79.73377 | 22610 ft | 215 kts | 157° |
| 2026-05-03 20:59 | 24.92699 | -79.72488 | 22891 ft | 216 kts | 157° |
| 2026-05-03 20:59 | 24.91427 | -79.71595 | 23168 ft | 216 kts | 158° |
| 2026-05-03 20:59 | 24.90151 | -79.70705 | 23457 ft | 220 kts | 155° |
| 2026-05-03 20:59 | 24.89020 | -79.69502 | 23712 ft | 233 kts | 137° |
| 2026-05-03 21:00 | 24.88192 | -79.67921 | 23948 ft | 243 kts | 121° |
| 2026-05-03 21:00 | 24.87745 | -79.66790 | 24105 ft | 243 kts | 121° |
| 2026-05-03 21:00 | 24.86810 | -79.64511 | 24418 ft | 244 kts | 122° |
| 2026-05-03 21:00 | 24.86105 | -79.62804 | 24652 ft | 246 kts | 122° |
| 2026-05-03 21:01 | 24.85399 | -79.61081 | 24892 ft | 247 kts | 122° |
| 2026-05-03 21:01 | 24.84692 | -79.59352 | 25129 ft | 248 kts | 122° |
| 2026-05-03 21:01 | 24.83988 | -79.57637 | 25365 ft | 249 kts | 122° |
| 2026-05-03 21:01 | 24.83270 | -79.55888 | 25611 ft | 250 kts | 123° |
| 2026-05-03 21:02 | 24.82551 | -79.54140 | 25849 ft | 251 kts | 123° |
| 2026-05-03 21:02 | 24.81826 | -79.52374 | 26080 ft | 252 kts | 123° |
| 2026-05-03 21:02 | 24.81108 | -79.50632 | 26325 ft | 254 kts | 123° |
| 2026-05-03 21:02 | 24.80377 | -79.48859 | 26567 ft | 255 kts | 123° |
| 2026-05-03 21:03 | 24.79645 | -79.47078 | 26805 ft | 256 kts | 123° |
| 2026-05-03 21:03 | 24.78910 | -79.45290 | 27044 ft | 257 kts | 123° |
| 2026-05-03 21:03 | 24.78171 | -79.43493 | 27282 ft | 258 kts | 123° |
| 2026-05-03 21:03 | 24.77427 | -79.41691 | 27511 ft | 259 kts | 123° |
| 2026-05-03 21:04 | 24.76680 | -79.39878 | 27735 ft | 261 kts | 123° |
| 2026-05-03 21:04 | 24.75931 | -79.38056 | 27967 ft | 262 kts | 123° |
| 2026-05-03 21:04 | 24.75179 | -79.36233 | 28190 ft | 263 kts | 123° |
| 2026-05-03 21:04 | 24.74418 | -79.34394 | 28417 ft | 264 kts | 123° |
| 2026-05-03 21:05 | 24.73658 | -79.32553 | 28639 ft | 265 kts | 124° |
| 2026-05-03 21:05 | 24.72903 | -79.30726 | 28854 ft | 266 kts | 123° |
| 2026-05-03 21:05 | 24.72135 | -79.28868 | 29072 ft | 267 kts | 124° |
| 2026-05-03 21:05 | 24.71367 | -79.27010 | 29284 ft | 268 kts | 124° |
| 2026-05-03 21:06 | 24.70594 | -79.25136 | 29491 ft | 269 kts | 124° |
| 2026-05-03 21:06 | 24.69814 | -79.23250 | 29703 ft | 270 kts | 124° |
| 2026-05-03 21:06 | 24.69033 | -79.21370 | 29908 ft | 271 kts | 124° |
| 2026-05-03 21:06 | 24.68251 | -79.19483 | 30099 ft | 272 kts | 124° |
| 2026-05-03 21:07 | 24.67467 | -79.17587 | 30257 ft | 273 kts | 124° |
| 2026-05-03 21:07 | 24.66690 | -79.15712 | 30403 ft | 274 kts | 124° |
| 2026-05-03 21:07 | 24.65899 | -79.13803 | 30548 ft | 275 kts | 124° |
| 2026-05-03 21:07 | 24.65103 | -79.11886 | 30686 ft | 276 kts | 124° |
| 2026-05-03 21:08 | 24.64304 | -79.09961 | 30826 ft | 277 kts | 124° |
| 2026-05-03 21:08 | 24.63504 | -79.08035 | 30957 ft | 278 kts | 124° |
| 2026-05-03 21:08 | 24.62688 | -79.06079 | 31002 ft | 283 kts | 124° |
| 2026-05-03 21:08 | 24.61859 | -79.04088 | 31010 ft | 289 kts | 123° |
| 2026-05-03 21:09 | 24.61016 | -79.02055 | 31017 ft | 295 kts | 123° |
| 2026-05-03 21:09 | 24.60151 | -78.99988 | 31016 ft | 301 kts | 123° |
| 2026-05-03 21:09 | 24.58378 | -78.95734 | 31019 ft | 315 kts | 123° |
| 2026-05-03 21:10 | 24.56524 | -78.91277 | 31016 ft | 325 kts | 123° |
| 2026-05-03 21:10 | 24.54622 | -78.86706 | 31016 ft | 332 kts | 122° |
| 2026-05-03 21:11 | 24.52685 | -78.82055 | 31017 ft | 337 kts | 122° |
| 2026-05-03 21:11 | 24.50727 | -78.77377 | 31016 ft | 340 kts | 122° |
| 2026-05-03 21:12 | 24.48743 | -78.72634 | 31018 ft | 342 kts | 122° |
| 2026-05-03 21:12 | 24.46751 | -78.67876 | 31016 ft | 344 kts | 122° |
| 2026-05-03 21:13 | 24.44749 | -78.63101 | 31018 ft | 345 kts | 122° |
| 2026-05-03 21:13 | 24.42743 | -78.58320 | 31016 ft | 345 kts | 122° |
| 2026-05-03 21:14 | 24.40733 | -78.53536 | 31015 ft | 345 kts | 122° |
| 2026-05-03 21:14 | 24.38729 | -78.48773 | 31015 ft | 345 kts | 122° |
| 2026-05-03 21:15 | 24.36713 | -78.43984 | 31011 ft | 345 kts | 122° |
| 2026-05-03 21:15 | 24.34699 | -78.39204 | 31012 ft | 345 kts | 122° |
| 2026-05-03 21:16 | 24.32695 | -78.34456 | 31004 ft | 345 kts | 122° |
| 2026-05-03 21:16 | 24.30667 | -78.29653 | 31006 ft | 345 kts | 122° |
| 2026-05-03 21:17 | 24.28988 | -78.25682 | 31003 ft | 345 kts | 122° |
| 2026-05-03 21:17 | 24.26643 | -78.20140 | 30999 ft | 344 kts | 122° |
| 2026-05-03 21:18 | 24.24626 | -78.15381 | 30996 ft | 344 kts | 122° |
| 2026-05-03 21:18 | 24.22607 | -78.10622 | 30997 ft | 344 kts | 122° |
| 2026-05-03 21:19 | 24.20590 | -78.05868 | 30995 ft | 344 kts | 122° |
| 2026-05-03 21:19 | 24.18570 | -78.01117 | 30996 ft | 344 kts | 122° |
| 2026-05-03 21:20 | 24.16566 | -77.96407 | 31000 ft | 344 kts | 122° |
| 2026-05-03 21:20 | 24.14545 | -77.91660 | 30998 ft | 343 kts | 122° |
| 2026-05-03 21:21 | 24.12525 | -77.86923 | 31000 ft | 343 kts | 122° |
| 2026-05-03 21:21 | 24.10500 | -77.82178 | 30995 ft | 343 kts | 122° |
| 2026-05-03 21:22 | 24.08476 | -77.77442 | 30999 ft | 343 kts | 122° |
| 2026-05-03 21:22 | 24.06456 | -77.72717 | 30996 ft | 343 kts | 122° |
| 2026-05-03 21:23 | 24.04440 | -77.68010 | 30996 ft | 344 kts | 122° |
| 2026-05-03 21:23 | 24.02409 | -77.63270 | 30998 ft | 344 kts | 122° |
| 2026-05-03 21:24 | 24.00371 | -77.58520 | 30999 ft | 344 kts | 122° |
| 2026-05-03 21:24 | 23.98334 | -77.53779 | 30999 ft | 345 kts | 122° |
| 2026-05-03 21:25 | 23.96293 | -77.49029 | 30999 ft | 345 kts | 122° |
| 2026-05-03 21:25 | 23.94250 | -77.44283 | 30998 ft | 345 kts | 122° |
| 2026-05-03 21:26 | 23.92220 | -77.39569 | 30998 ft | 345 kts | 122° |
| 2026-05-03 21:26 | 23.90175 | -77.34828 | 30996 ft | 345 kts | 122° |
| 2026-05-03 21:27 | 23.88129 | -77.30087 | 30998 ft | 345 kts | 122° |
| 2026-05-03 21:27 | 23.86082 | -77.25350 | 30998 ft | 344 kts | 122° |
| 2026-05-03 21:28 | 23.84034 | -77.20616 | 31009 ft | 344 kts | 122° |
| 2026-05-03 21:28 | 23.81984 | -77.15882 | 30999 ft | 344 kts | 122° |
| 2026-05-03 21:29 | 23.79935 | -77.11155 | 30995 ft | 344 kts | 122° |
| 2026-05-03 21:29 | 23.77886 | -77.06430 | 30995 ft | 344 kts | 122° |
| 2026-05-03 21:30 | 23.76052 | -77.01613 | 30998 ft | 347 kts | 116° |
| 2026-05-03 21:30 | 23.74366 | -76.96675 | 31005 ft | 347 kts | 116° |
| 2026-05-03 21:31 | 23.72681 | -76.91729 | 31011 ft | 347 kts | 116° |
| 2026-05-03 21:31 | 23.70996 | -76.86790 | 31002 ft | 347 kts | 116° |
| 2026-05-03 21:32 | 23.69309 | -76.81855 | 31007 ft | 347 kts | 116° |
| 2026-05-03 21:32 | 23.67624 | -76.76927 | 31004 ft | 347 kts | 116° |
| 2026-05-03 21:33 | 23.65947 | -76.72031 | 31000 ft | 347 kts | 116° |
| 2026-05-03 21:33 | 23.64256 | -76.67099 | 31006 ft | 346 kts | 116° |
| 2026-05-03 21:34 | 23.62568 | -76.62181 | 31004 ft | 346 kts | 116° |
| 2026-05-03 21:34 | 23.61163 | -76.58094 | 31007 ft | 346 kts | 116° |
| 2026-05-03 21:35 | 23.59196 | -76.52378 | 31007 ft | 346 kts | 116° |
| 2026-05-03 21:35 | 23.57506 | -76.47473 | 31001 ft | 346 kts | 116° |
| 2026-05-03 21:36 | 23.56089 | -76.43363 | 31005 ft | 345 kts | 116° |
| 2026-05-03 21:36 | 23.54407 | -76.38491 | 31007 ft | 345 kts | 116° |
| 2026-05-03 21:37 | 23.52715 | -76.33595 | 31003 ft | 345 kts | 116° |
| 2026-05-03 21:37 | 23.51023 | -76.28704 | 31004 ft | 345 kts | 116° |
| 2026-05-03 21:38 | 23.49331 | -76.23820 | 31003 ft | 344 kts | 116° |
| 2026-05-03 21:38 | 23.47637 | -76.18937 | 31005 ft | 344 kts | 116° |
| 2026-05-03 21:39 | 23.45968 | -76.14118 | 31005 ft | 333 kts | 116° |
| 2026-05-03 21:39 | 23.44363 | -76.09499 | 31006 ft | 323 kts | 116° |
| 2026-05-03 21:40 | 23.42784 | -76.04963 | 31005 ft | 317 kts | 116° |
| 2026-05-03 21:40 | 23.41231 | -76.00503 | 31007 ft | 313 kts | 116° |
| 2026-05-03 21:41 | 23.39691 | -75.96089 | 31008 ft | 310 kts | 116° |
| 2026-05-03 21:41 | 23.38172 | -75.91736 | 31007 ft | 308 kts | 116° |
| 2026-05-03 21:42 | 23.36647 | -75.87372 | 31007 ft | 307 kts | 116° |
| 2026-05-03 21:42 | 23.35127 | -75.83026 | 31008 ft | 306 kts | 116° |
| 2026-05-03 21:43 | 23.33620 | -75.78723 | 31008 ft | 306 kts | 116° |
| 2026-05-03 21:43 | 23.32105 | -75.74401 | 31008 ft | 305 kts | 116° |
| 2026-05-03 21:44 | 23.30593 | -75.70092 | 31007 ft | 305 kts | 116° |
| 2026-05-03 21:44 | 23.29079 | -75.65780 | 31010 ft | 305 kts | 116° |
| 2026-05-03 21:45 | 23.27566 | -75.61477 | 31007 ft | 304 kts | 116° |
| 2026-05-03 21:45 | 23.26051 | -75.57173 | 31010 ft | 304 kts | 116° |
| 2026-05-03 21:46 | 23.24548 | -75.52906 | 31008 ft | 304 kts | 116° |
| 2026-05-03 21:46 | 23.23033 | -75.48608 | 31015 ft | 304 kts | 116° |
| 2026-05-03 21:47 | 23.21516 | -75.44313 | 31012 ft | 304 kts | 116° |
| 2026-05-03 21:47 | 23.19996 | -75.40010 | 31016 ft | 304 kts | 116° |
| 2026-05-03 21:48 | 23.18477 | -75.35715 | 31013 ft | 304 kts | 116° |
| 2026-05-03 21:48 | 23.16969 | -75.31455 | 31012 ft | 304 kts | 116° |
| 2026-05-03 21:49 | 23.15449 | -75.27166 | 31012 ft | 304 kts | 116° |
| 2026-05-03 21:49 | 23.13929 | -75.22880 | 31012 ft | 304 kts | 116° |
| 2026-05-03 21:50 | 23.12408 | -75.18597 | 31013 ft | 303 kts | 116° |
| 2026-05-03 21:50 | 23.10891 | -75.14328 | 31013 ft | 303 kts | 116° |
| 2026-05-03 21:51 | 23.09368 | -75.10047 | 31013 ft | 303 kts | 116° |
| 2026-05-03 21:51 | 23.07846 | -75.05774 | 31012 ft | 303 kts | 116° |
| 2026-05-03 21:52 | 23.06335 | -75.01534 | 31013 ft | 303 kts | 116° |
| 2026-05-03 21:52 | 23.04812 | -74.97267 | 31012 ft | 303 kts | 116° |
| 2026-05-03 21:53 | 23.03286 | -74.92994 | 31011 ft | 303 kts | 116° |
| 2026-05-03 21:53 | 23.01763 | -74.88734 | 31013 ft | 302 kts | 116° |
| 2026-05-03 21:54 | 23.00239 | -74.84475 | 31014 ft | 302 kts | 116° |
| 2026-05-03 21:54 | 22.98725 | -74.80249 | 31012 ft | 302 kts | 116° |
| 2026-05-03 21:55 | 22.97197 | -74.75989 | 31012 ft | 302 kts | 116° |
| 2026-05-03 21:55 | 22.95671 | -74.71738 | 31013 ft | 302 kts | 116° |
| 2026-05-03 21:56 | 22.94156 | -74.67520 | 31011 ft | 301 kts | 116° |
| 2026-05-03 21:56 | 22.92631 | -74.63277 | 31011 ft | 301 kts | 116° |
| 2026-05-03 21:57 | 22.91105 | -74.59039 | 31010 ft | 301 kts | 116° |
| 2026-05-03 21:57 | 22.89581 | -74.54808 | 31015 ft | 301 kts | 116° |
| 2026-05-03 21:58 | 22.88067 | -74.50610 | 31011 ft | 301 kts | 116° |
| 2026-05-03 21:58 | 22.86540 | -74.46381 | 31013 ft | 300 kts | 116° |
| 2026-05-03 21:59 | 22.85778 | -74.44271 | 31013 ft | 300 kts | 116° |
| 2026-05-03 21:59 | 22.85016 | -74.42163 | 31014 ft | 300 kts | 116° |
| 2026-05-03 21:59 | 22.84253 | -74.40053 | 31010 ft | 300 kts | 116° |
| 2026-05-03 21:59 | 22.83491 | -74.37945 | 31013 ft | 300 kts | 116° |
| 2026-05-03 22:00 | 22.82728 | -74.35837 | 31013 ft | 300 kts | 116° |
| 2026-05-03 22:00 | 22.81965 | -74.33729 | 31016 ft | 300 kts | 116° |
| 2026-05-03 22:00 | 22.81200 | -74.31619 | 31014 ft | 300 kts | 116° |
| 2026-05-03 22:00 | 22.80447 | -74.29541 | 31020 ft | 299 kts | 116° |
| 2026-05-03 22:01 | 22.79685 | -74.27439 | 31017 ft | 300 kts | 116° |
| 2026-05-03 22:01 | 22.78922 | -74.25334 | 31018 ft | 300 kts | 116° |
| 2026-05-03 22:01 | 22.78159 | -74.23232 | 31017 ft | 300 kts | 116° |
| 2026-05-03 22:01 | 22.77394 | -74.21128 | 31023 ft | 300 kts | 116° |
| 2026-05-03 22:02 | 22.76630 | -74.19024 | 31019 ft | 300 kts | 116° |
| 2026-05-03 22:02 | 22.75867 | -74.16924 | 31020 ft | 299 kts | 116° |
| 2026-05-03 22:02 | 22.75103 | -74.14825 | 31022 ft | 299 kts | 116° |
| 2026-05-03 22:02 | 22.74339 | -74.12724 | 31018 ft | 299 kts | 116° |
| 2026-05-03 22:03 | 22.73584 | -74.10651 | 31018 ft | 299 kts | 116° |
| 2026-05-03 22:03 | 22.72822 | -74.08557 | 31020 ft | 299 kts | 116° |
| 2026-05-03 22:03 | 22.72057 | -74.06459 | 31020 ft | 299 kts | 116° |
| 2026-05-03 22:03 | 22.71292 | -74.04360 | 31014 ft | 299 kts | 116° |
| 2026-05-03 22:04 | 22.70529 | -74.02266 | 31015 ft | 299 kts | 116° |
| 2026-05-03 22:04 | 22.69763 | -74.00166 | 31015 ft | 299 kts | 116° |
| 2026-05-03 22:04 | 22.69008 | -73.98099 | 31018 ft | 298 kts | 116° |
| 2026-05-03 22:04 | 22.68245 | -73.96012 | 31015 ft | 298 kts | 116° |
| 2026-05-03 22:05 | 22.67482 | -73.93921 | 31015 ft | 298 kts | 116° |
| 2026-05-03 22:05 | 22.66717 | -73.91829 | 31016 ft | 298 kts | 116° |
| 2026-05-03 22:05 | 22.65953 | -73.89739 | 31012 ft | 298 kts | 116° |
| 2026-05-03 22:05 | 22.65190 | -73.87654 | 31015 ft | 298 kts | 116° |
| 2026-05-03 22:06 | 22.64427 | -73.85570 | 31009 ft | 298 kts | 116° |
| 2026-05-03 22:06 | 22.63664 | -73.83486 | 31015 ft | 298 kts | 116° |
| 2026-05-03 22:06 | 22.62900 | -73.81401 | 31012 ft | 298 kts | 116° |
| 2026-05-03 22:06 | 22.62136 | -73.79317 | 31017 ft | 297 kts | 116° |
| 2026-05-03 22:07 | 22.61373 | -73.77236 | 31016 ft | 297 kts | 116° |
| 2026-05-03 22:07 | 22.60609 | -73.75153 | 31018 ft | 297 kts | 116° |
| 2026-05-03 22:07 | 22.59855 | -73.73099 | 31019 ft | 297 kts | 116° |
| 2026-05-03 22:07 | 22.59091 | -73.71018 | 31016 ft | 297 kts | 116° |
| 2026-05-03 22:08 | 22.58328 | -73.68941 | 31013 ft | 297 kts | 116° |
| 2026-05-03 22:08 | 22.57564 | -73.66864 | 31015 ft | 297 kts | 116° |
| 2026-05-03 22:08 | 22.56801 | -73.64789 | 31016 ft | 297 kts | 116° |
| 2026-05-03 22:08 | 22.56038 | -73.62713 | 31013 ft | 297 kts | 116° |
| 2026-05-03 22:09 | 22.55273 | -73.60635 | 31014 ft | 297 kts | 116° |
| 2026-05-03 22:09 | 22.54510 | -73.58563 | 31014 ft | 297 kts | 116° |
| 2026-05-03 22:09 | 22.53744 | -73.56485 | 31015 ft | 297 kts | 116° |
| 2026-05-03 22:10 | 22.52225 | -73.52362 | 31011 ft | 296 kts | 116° |
| 2026-05-03 22:10 | 22.51461 | -73.50293 | 31014 ft | 296 kts | 116° |
| 2026-05-03 22:10 | 22.50696 | -73.48219 | 31011 ft | 296 kts | 116° |
| 2026-05-03 22:10 | 22.49932 | -73.46151 | 31013 ft | 296 kts | 116° |
| 2026-05-03 22:11 | 22.49168 | -73.44083 | 31014 ft | 296 kts | 116° |
| 2026-05-03 22:11 | 22.48405 | -73.42016 | 31014 ft | 296 kts | 116° |
| 2026-05-03 22:11 | 22.47641 | -73.39951 | 31013 ft | 296 kts | 116° |
| 2026-05-03 22:11 | 22.46876 | -73.37885 | 31015 ft | 296 kts | 116° |
| 2026-05-03 22:12 | 22.46113 | -73.35822 | 31011 ft | 296 kts | 116° |
| 2026-05-03 22:12 | 22.45347 | -73.33754 | 31011 ft | 295 kts | 116° |
| 2026-05-03 22:12 | 22.44582 | -73.31689 | 31013 ft | 295 kts | 116° |
| 2026-05-03 22:12 | 22.43827 | -73.29649 | 31014 ft | 295 kts | 116° |
| 2026-05-03 22:13 | 22.43064 | -73.27591 | 31015 ft | 295 kts | 115° |
| 2026-05-03 22:13 | 22.42299 | -73.25530 | 31016 ft | 295 kts | 116° |
| 2026-05-03 22:13 | 22.41535 | -73.23472 | 31013 ft | 295 kts | 115° |
| 2026-05-03 22:13 | 22.40771 | -73.21413 | 31016 ft | 295 kts | 115° |
| 2026-05-03 22:14 | 22.40007 | -73.19357 | 31017 ft | 295 kts | 115° |
| 2026-05-03 22:14 | 22.39242 | -73.17299 | 31017 ft | 294 kts | 115° |
| 2026-05-03 22:14 | 22.38479 | -73.15245 | 31017 ft | 294 kts | 115° |
| 2026-05-03 22:14 | 22.37724 | -73.13217 | 31015 ft | 295 kts | 115° |
| 2026-05-03 22:15 | 22.36960 | -73.11163 | 31013 ft | 294 kts | 115° |
| 2026-05-03 22:15 | 22.36195 | -73.09108 | 31021 ft | 294 kts | 115° |
| 2026-05-03 22:15 | 22.35431 | -73.07056 | 31021 ft | 294 kts | 115° |
| 2026-05-03 22:15 | 22.34666 | -73.05003 | 31020 ft | 294 kts | 115° |
| 2026-05-03 22:16 | 22.33901 | -73.02951 | 31017 ft | 294 kts | 115° |
| 2026-05-03 22:16 | 22.33136 | -73.00901 | 31021 ft | 294 kts | 115° |
| 2026-05-03 22:16 | 22.32372 | -72.98853 | 31019 ft | 294 kts | 115° |
| 2026-05-03 22:16 | 22.31608 | -72.96806 | 31017 ft | 294 kts | 115° |
| 2026-05-03 22:17 | 22.30844 | -72.94758 | 31018 ft | 294 kts | 115° |
| 2026-05-03 22:17 | 22.30079 | -72.92711 | 31018 ft | 294 kts | 115° |
| 2026-05-03 22:17 | 22.29313 | -72.90662 | 31017 ft | 294 kts | 115° |
| 2026-05-03 22:17 | 22.28548 | -72.88617 | 31019 ft | 293 kts | 115° |
| 2026-05-03 22:18 | 22.27794 | -72.86601 | 31017 ft | 293 kts | 115° |
| 2026-05-03 22:18 | 22.27028 | -72.84553 | 31017 ft | 293 kts | 115° |
| 2026-05-03 22:18 | 22.26264 | -72.82512 | 31019 ft | 293 kts | 115° |
| 2026-05-03 22:18 | 22.25496 | -72.80464 | 31019 ft | 293 kts | 115° |
| 2026-05-03 22:19 | 22.24733 | -72.78426 | 31017 ft | 293 kts | 115° |
| 2026-05-03 22:19 | 22.23966 | -72.76381 | 31020 ft | 293 kts | 115° |
| 2026-05-03 22:19 | 22.23201 | -72.74342 | 31020 ft | 293 kts | 115° |
| 2026-05-03 22:19 | 22.22437 | -72.72305 | 31017 ft | 293 kts | 115° |
| 2026-05-03 22:20 | 22.21671 | -72.70265 | 31019 ft | 293 kts | 115° |
| 2026-05-03 22:20 | 22.20916 | -72.68254 | 31022 ft | 293 kts | 115° |
| 2026-05-03 22:20 | 22.20151 | -72.66219 | 31020 ft | 293 kts | 115° |
| 2026-05-03 22:20 | 22.19387 | -72.64185 | 31022 ft | 293 kts | 115° |
| 2026-05-03 22:21 | 22.18621 | -72.62150 | 31018 ft | 292 kts | 115° |
| 2026-05-03 22:21 | 22.17856 | -72.60115 | 31017 ft | 292 kts | 115° |
| 2026-05-03 22:21 | 22.17090 | -72.58082 | 31021 ft | 292 kts | 115° |
| 2026-05-03 22:21 | 22.16325 | -72.56048 | 31020 ft | 292 kts | 115° |
| 2026-05-03 22:22 | 22.15819 | -72.54706 | 31024 ft | 292 kts | 115° |
| 2026-05-03 22:22 | 22.15052 | -72.52671 | 31022 ft | 292 kts | 115° |
| 2026-05-03 22:22 | 22.14286 | -72.50639 | 31024 ft | 292 kts | 115° |
| 2026-05-03 22:22 | 22.13272 | -72.47950 | 31024 ft | 292 kts | 115° |
| 2026-05-03 22:23 | 22.12507 | -72.45923 | 31021 ft | 292 kts | 115° |
| 2026-05-03 22:23 | 22.11741 | -72.43895 | 31019 ft | 292 kts | 115° |
| 2026-05-03 22:23 | 22.11224 | -72.42527 | 31021 ft | 292 kts | 115° |
| 2026-05-03 22:23 | 22.10211 | -72.39846 | 31019 ft | 292 kts | 115° |
| 2026-05-03 22:24 | 22.09694 | -72.38478 | 31020 ft | 292 kts | 115° |
| 2026-05-03 22:24 | 22.08928 | -72.36452 | 31014 ft | 291 kts | 115° |
| 2026-05-03 22:24 | 22.08171 | -72.34450 | 31014 ft | 291 kts | 115° |
| 2026-05-03 22:24 | 22.07404 | -72.32424 | 31010 ft | 291 kts | 115° |
| 2026-05-03 22:25 | 22.06638 | -72.30401 | 31011 ft | 291 kts | 115° |
| 2026-05-03 22:25 | 22.05871 | -72.28377 | 31011 ft | 291 kts | 115° |
| 2026-05-03 22:25 | 22.05103 | -72.26352 | 31009 ft | 291 kts | 115° |
| 2026-05-03 22:25 | 22.04346 | -72.24355 | 31009 ft | 291 kts | 115° |
| 2026-05-03 22:26 | 22.03580 | -72.22336 | 31006 ft | 291 kts | 115° |
| 2026-05-03 22:26 | 22.02814 | -72.20316 | 31005 ft | 291 kts | 115° |
| 2026-05-03 22:26 | 22.02047 | -72.18296 | 31007 ft | 291 kts | 115° |
| 2026-05-03 22:26 | 22.01281 | -72.16279 | 31008 ft | 291 kts | 115° |
| 2026-05-03 22:27 | 22.00515 | -72.14263 | 31008 ft | 291 kts | 115° |
| 2026-05-03 22:27 | 21.99748 | -72.12246 | 31007 ft | 291 kts | 115° |
| 2026-05-03 22:27 | 21.98981 | -72.10228 | 31007 ft | 291 kts | 115° |
| 2026-05-03 22:27 | 21.98213 | -72.08211 | 31011 ft | 291 kts | 114° |
| 2026-05-03 22:28 | 21.97447 | -72.06197 | 31011 ft | 290 kts | 115° |
| 2026-05-03 22:28 | 21.96681 | -72.04185 | 31012 ft | 290 kts | 114° |
| 2026-05-03 22:28 | 21.95923 | -72.02197 | 31014 ft | 290 kts | 114° |
| 2026-05-03 22:28 | 21.95156 | -72.00184 | 31013 ft | 290 kts | 114° |
| 2026-05-03 22:29 | 21.94389 | -71.98171 | 31017 ft | 290 kts | 114° |
| 2026-05-03 22:29 | 21.93621 | -71.96160 | 31014 ft | 290 kts | 114° |
| 2026-05-03 22:29 | 21.92854 | -71.94149 | 31017 ft | 290 kts | 114° |
| 2026-05-03 22:29 | 21.92085 | -71.92132 | 31020 ft | 290 kts | 114° |
| 2026-05-03 22:30 | 21.91318 | -71.90124 | 31019 ft | 290 kts | 114° |
| 2026-05-03 22:30 | 21.90550 | -71.88115 | 31017 ft | 290 kts | 114° |
| 2026-05-03 22:30 | 21.89779 | -71.86096 | 31020 ft | 290 kts | 114° |
| 2026-05-03 22:30 | 21.89019 | -71.84111 | 31020 ft | 290 kts | 114° |
| 2026-05-03 22:31 | 21.88252 | -71.82105 | 31017 ft | 290 kts | 114° |
| 2026-05-03 22:31 | 21.87500 | -71.80091 | 31019 ft | 290 kts | 112° |
| 2026-05-03 22:31 | 21.86744 | -71.78054 | 31021 ft | 296 kts | 113° |
| 2026-05-03 22:31 | 21.85938 | -71.75996 | 31027 ft | 300 kts | 114° |
| 2026-05-03 22:32 | 21.85118 | -71.73909 | 31034 ft | 304 kts | 114° |
| 2026-05-03 22:32 | 21.83463 | -71.69658 | 31042 ft | 311 kts | 114° |
| 2026-05-03 22:33 | 21.81811 | -71.65304 | 31041 ft | 316 kts | 114° |
| 2026-05-03 22:33 | 21.80116 | -71.60904 | 31042 ft | 319 kts | 114° |
| 2026-05-03 22:34 | 21.78414 | -71.56472 | 31040 ft | 321 kts | 114° |
| 2026-05-03 22:34 | 21.76699 | -71.52019 | 31039 ft | 323 kts | 114° |
| 2026-05-03 22:35 | 21.74978 | -71.47552 | 31040 ft | 323 kts | 114° |
| 2026-05-03 22:35 | 21.73264 | -71.43107 | 31043 ft | 324 kts | 114° |
| 2026-05-03 22:36 | 21.71536 | -71.38630 | 31041 ft | 324 kts | 114° |
| 2026-05-03 22:36 | 21.69805 | -71.34150 | 31040 ft | 324 kts | 114° |
| 2026-05-03 22:37 | 21.68073 | -71.29670 | 31039 ft | 324 kts | 114° |
| 2026-05-03 22:37 | 21.66339 | -71.25191 | 31038 ft | 324 kts | 114° |
| 2026-05-03 22:38 | 21.64602 | -71.20707 | 31039 ft | 324 kts | 114° |
| 2026-05-03 22:38 | 21.62866 | -71.16230 | 31034 ft | 325 kts | 114° |
| 2026-05-03 22:39 | 21.61127 | -71.11749 | 31039 ft | 325 kts | 114° |
| 2026-05-03 22:39 | 21.59395 | -71.07292 | 31037 ft | 325 kts | 114° |
| 2026-05-03 22:40 | 21.57455 | -71.02886 | 31038 ft | 323 kts | 125° |
| 2026-05-03 22:40 | 21.54601 | -70.99206 | 31038 ft | 322 kts | 133° |
| 2026-05-03 22:41 | 21.51673 | -70.95554 | 31041 ft | 323 kts | 133° |
| 2026-05-03 22:41 | 21.48729 | -70.91915 | 31037 ft | 323 kts | 133° |
| 2026-05-03 22:42 | 21.45782 | -70.88261 | 31039 ft | 323 kts | 133° |
| 2026-05-03 22:42 | 21.42833 | -70.84613 | 31037 ft | 323 kts | 133° |
| 2026-05-03 22:43 | 21.39882 | -70.80962 | 31035 ft | 324 kts | 133° |
| 2026-05-03 22:43 | 21.36927 | -70.77310 | 31037 ft | 324 kts | 133° |
| 2026-05-03 22:44 | 21.33990 | -70.73683 | 31034 ft | 324 kts | 133° |
| 2026-05-03 22:44 | 21.31029 | -70.70028 | 31031 ft | 324 kts | 133° |
| 2026-05-03 22:45 | 21.28067 | -70.66375 | 31029 ft | 325 kts | 133° |
| 2026-05-03 22:45 | 21.25105 | -70.62723 | 31031 ft | 325 kts | 133° |
| 2026-05-03 22:46 | 21.22136 | -70.59066 | 31030 ft | 325 kts | 133° |
| 2026-05-03 22:46 | 21.19164 | -70.55407 | 31030 ft | 325 kts | 133° |
| 2026-05-03 22:47 | 21.16193 | -70.51753 | 31028 ft | 325 kts | 133° |
| 2026-05-03 22:47 | 21.13220 | -70.48098 | 31027 ft | 325 kts | 133° |
| 2026-05-03 22:48 | 21.10266 | -70.44467 | 31028 ft | 325 kts | 133° |
| 2026-05-03 22:48 | 21.07284 | -70.40807 | 31029 ft | 326 kts | 133° |
| 2026-05-03 22:49 | 21.04302 | -70.37149 | 31027 ft | 326 kts | 133° |
| 2026-05-03 22:49 | 21.01334 | -70.33510 | 31027 ft | 326 kts | 133° |
| 2026-05-03 22:50 | 20.98346 | -70.29848 | 31029 ft | 326 kts | 133° |
| 2026-05-03 22:50 | 20.95357 | -70.26188 | 31027 ft | 326 kts | 132° |
| 2026-05-03 22:51 | 20.92367 | -70.22528 | 31028 ft | 327 kts | 132° |
| 2026-05-03 22:51 | 20.89370 | -70.18864 | 31027 ft | 327 kts | 133° |
| 2026-05-03 22:52 | 20.86376 | -70.15204 | 31025 ft | 327 kts | 133° |
| 2026-05-03 22:52 | 20.83398 | -70.11568 | 31027 ft | 327 kts | 133° |
| 2026-05-03 22:53 | 20.80393 | -70.07900 | 31025 ft | 327 kts | 133° |
| 2026-05-03 22:53 | 20.77394 | -70.04242 | 31027 ft | 327 kts | 133° |
| 2026-05-03 22:54 | 20.74389 | -70.00581 | 31027 ft | 327 kts | 132° |
| 2026-05-03 22:54 | 20.71384 | -69.96919 | 31027 ft | 328 kts | 132° |
| 2026-05-03 22:55 | 20.68393 | -69.93278 | 31027 ft | 328 kts | 132° |
| 2026-05-03 22:55 | 20.65382 | -69.89618 | 31025 ft | 328 kts | 132° |
| 2026-05-03 22:56 | 20.62374 | -69.85959 | 31023 ft | 328 kts | 132° |
| 2026-05-03 22:56 | 20.59360 | -69.82297 | 31022 ft | 328 kts | 132° |
| 2026-05-03 22:57 | 20.56346 | -69.78637 | 31025 ft | 328 kts | 132° |
| 2026-05-03 22:57 | 20.53346 | -69.74998 | 31021 ft | 328 kts | 132° |
| 2026-05-03 22:58 | 20.50329 | -69.71340 | 31023 ft | 328 kts | 132° |
| 2026-05-03 22:58 | 20.47306 | -69.67676 | 31021 ft | 328 kts | 132° |
| 2026-05-03 22:59 | 20.44284 | -69.64018 | 31021 ft | 328 kts | 132° |
| 2026-05-03 22:59 | 20.41263 | -69.60361 | 31023 ft | 329 kts | 132° |
| 2026-05-03 23:00 | 20.38239 | -69.56704 | 31027 ft | 329 kts | 132° |
| 2026-05-03 23:00 | 20.35233 | -69.53070 | 31026 ft | 329 kts | 132° |
| 2026-05-03 23:01 | 20.32209 | -69.49417 | 31023 ft | 328 kts | 132° |
| 2026-05-03 23:01 | 20.29178 | -69.45759 | 31024 ft | 329 kts | 132° |
| 2026-05-03 23:02 | 20.26149 | -69.42104 | 31027 ft | 329 kts | 132° |
| 2026-05-03 23:02 | 20.23141 | -69.38479 | 31028 ft | 329 kts | 131° |
| 2026-05-03 23:03 | 20.20110 | -69.34827 | 31025 ft | 329 kts | 132° |
| 2026-05-03 23:03 | 20.17082 | -69.31181 | 31026 ft | 329 kts | 131° |
| 2026-05-03 23:04 | 20.14054 | -69.27538 | 31027 ft | 328 kts | 132° |
| 2026-05-03 23:04 | 20.11026 | -69.23897 | 31028 ft | 328 kts | 131° |
| 2026-05-03 23:05 | 20.08000 | -69.20260 | 31027 ft | 328 kts | 131° |
| 2026-05-03 23:05 | 20.04991 | -69.16648 | 31024 ft | 328 kts | 131° |
| 2026-05-03 23:06 | 20.01961 | -69.13010 | 31025 ft | 328 kts | 131° |
| 2026-05-03 23:06 | 19.98936 | -69.09382 | 31024 ft | 328 kts | 131° |
| 2026-05-03 23:07 | 19.95913 | -69.05759 | 31028 ft | 327 kts | 131° |
| 2026-05-03 23:07 | 19.92888 | -69.02155 | 31029 ft | 326 kts | 133° |
| 2026-05-03 23:08 | 19.89876 | -68.98548 | 31024 ft | 326 kts | 131° |
| 2026-05-03 23:08 | 19.86868 | -68.94940 | 31023 ft | 326 kts | 132° |
| 2026-05-03 23:09 | 19.84019 | -68.91228 | 31022 ft | 326 kts | 129° |
| 2026-05-03 23:09 | 19.81184 | -68.87482 | 31024 ft | 325 kts | 129° |
| 2026-05-03 23:10 | 19.78302 | -68.83767 | 31026 ft | 326 kts | 129° |
| 2026-05-03 23:10 | 19.75932 | -68.80656 | 31022 ft | 326 kts | 129° |
| 2026-05-03 23:11 | 19.73069 | -68.76925 | 31029 ft | 326 kts | 129° |
| 2026-05-03 23:11 | 19.69761 | -68.72579 | 31029 ft | 325 kts | 129° |
| 2026-05-03 23:12 | 19.67357 | -68.69472 | 31031 ft | 325 kts | 129° |
| 2026-05-03 23:12 | 19.64520 | -68.65770 | 31031 ft | 325 kts | 128° |
| 2026-05-03 23:13 | 19.61662 | -68.62055 | 31029 ft | 324 kts | 129° |
| 2026-05-03 23:13 | 19.58809 | -68.58344 | 31030 ft | 324 kts | 129° |
| 2026-05-03 23:14 | 19.55954 | -68.54634 | 31031 ft | 324 kts | 129° |
| 2026-05-03 23:14 | 19.53124 | -68.50959 | 31033 ft | 323 kts | 129° |
| 2026-05-03 23:15 | 19.50274 | -68.47261 | 31032 ft | 323 kts | 129° |
| 2026-05-03 23:15 | 19.47426 | -68.43566 | 31034 ft | 323 kts | 129° |
| 2026-05-03 23:16 | 19.44579 | -68.39876 | 31034 ft | 323 kts | 129° |
| 2026-05-03 23:16 | 19.41736 | -68.36192 | 31037 ft | 323 kts | 129° |
| 2026-05-03 23:17 | 19.38895 | -68.32514 | 31035 ft | 323 kts | 129° |
| 2026-05-03 23:17 | 19.36052 | -68.28836 | 31034 ft | 322 kts | 129° |
| 2026-05-03 23:18 | 19.33227 | -68.25182 | 31038 ft | 322 kts | 129° |
| 2026-05-03 23:18 | 19.30385 | -68.21509 | 31040 ft | 322 kts | 129° |
| 2026-05-03 23:19 | 19.27542 | -68.17838 | 31038 ft | 322 kts | 129° |
| 2026-05-03 23:19 | 19.24701 | -68.14170 | 31036 ft | 322 kts | 129° |
| 2026-05-03 23:20 | 19.21866 | -68.10512 | 31035 ft | 321 kts | 129° |
| 2026-05-03 23:20 | 19.19046 | -68.06876 | 31040 ft | 321 kts | 129° |
| 2026-05-03 23:21 | 19.16208 | -68.03220 | 31038 ft | 321 kts | 129° |
| 2026-05-03 23:21 | 19.13372 | -67.99568 | 31039 ft | 321 kts | 129° |
| 2026-05-03 23:22 | 19.09137 | -67.94119 | 31039 ft | 320 kts | 129° |
| 2026-05-03 23:22 | 19.06302 | -67.90473 | 31041 ft | 320 kts | 129° |
| 2026-05-03 23:23 | 19.03471 | -67.86835 | 31041 ft | 320 kts | 129° |
| 2026-05-03 23:23 | 19.00641 | -67.83201 | 31041 ft | 320 kts | 129° |
| 2026-05-03 23:24 | 18.97812 | -67.79569 | 31040 ft | 320 kts | 129° |
| 2026-05-03 23:24 | 18.95001 | -67.75964 | 31041 ft | 320 kts | 129° |
| 2026-05-03 23:25 | 18.92173 | -67.72338 | 31041 ft | 320 kts | 129° |
| 2026-05-03 23:25 | 18.89345 | -67.68715 | 31043 ft | 319 kts | 129° |
| 2026-05-03 23:26 | 18.86515 | -67.65092 | 31041 ft | 319 kts | 129° |
| 2026-05-03 23:26 | 18.83686 | -67.61471 | 31043 ft | 319 kts | 129° |
| 2026-05-03 23:27 | 18.80856 | -67.57852 | 31040 ft | 319 kts | 129° |
| 2026-05-03 23:27 | 18.78044 | -67.54257 | 31039 ft | 319 kts | 129° |
| 2026-05-03 23:28 | 18.75209 | -67.50635 | 31040 ft | 319 kts | 129° |
| 2026-05-03 23:28 | 18.72384 | -67.47028 | 31041 ft | 319 kts | 129° |
| 2026-05-03 23:29 | 18.69554 | -67.43417 | 31041 ft | 319 kts | 129° |
| 2026-05-03 23:29 | 18.66742 | -67.39830 | 31039 ft | 319 kts | 129° |
| 2026-05-03 23:30 | 18.63908 | -67.36218 | 31043 ft | 319 kts | 129° |
| 2026-05-03 23:30 | 18.61078 | -67.32613 | 31043 ft | 319 kts | 129° |
| 2026-05-03 23:31 | 18.58266 | -67.29032 | 31044 ft | 319 kts | 129° |
| 2026-05-03 23:31 | 18.55437 | -67.25433 | 31044 ft | 318 kts | 129° |
| 2026-05-03 23:32 | 18.52611 | -67.21840 | 31046 ft | 318 kts | 129° |
| 2026-05-03 23:32 | 18.49817 | -67.18228 | 31049 ft | 318 kts | 124° |
| 2026-05-03 23:33 | 18.48766 | -67.16245 | 31052 ft | 317 kts | 113° |
| 2026-05-03 23:33 | 18.48058 | -67.14050 | 31055 ft | 316 kts | 104° |
| 2026-05-03 23:33 | 18.46861 | -67.09623 | 31056 ft | 316 kts | 105° |
| 2026-05-03 23:34 | 18.45654 | -67.05171 | 31057 ft | 316 kts | 105° |
| 2026-05-03 23:34 | 18.44448 | -67.00716 | 31055 ft | 316 kts | 105° |
| 2026-05-03 23:35 | 18.43238 | -66.96260 | 31057 ft | 316 kts | 105° |
| 2026-05-03 23:35 | 18.42029 | -66.91797 | 31055 ft | 317 kts | 105° |
| 2026-05-03 23:36 | 18.40810 | -66.87331 | 31058 ft | 317 kts | 105° |
| 2026-05-03 23:36 | 18.39598 | -66.82865 | 31057 ft | 317 kts | 105° |
| 2026-05-03 23:37 | 18.38385 | -66.78420 | 31058 ft | 318 kts | 105° |
| 2026-05-03 23:37 | 18.37167 | -66.73947 | 31061 ft | 318 kts | 105° |
| 2026-05-03 23:38 | 18.35941 | -66.69464 | 31062 ft | 318 kts | 105° |
| 2026-05-03 23:38 | 18.34719 | -66.64987 | 31065 ft | 318 kts | 105° |
| 2026-05-03 23:39 | 18.33495 | -66.60514 | 31061 ft | 318 kts | 105° |
| 2026-05-03 23:39 | 18.32270 | -66.56037 | 31065 ft | 318 kts | 105° |
| 2026-05-03 23:40 | 18.31051 | -66.51589 | 31060 ft | 318 kts | 105° |
| 2026-05-03 23:40 | 18.29828 | -66.47133 | 31062 ft | 318 kts | 105° |
| 2026-05-03 23:41 | 18.28600 | -66.42655 | 31065 ft | 318 kts | 105° |
| 2026-05-03 23:41 | 18.27368 | -66.38180 | 31062 ft | 318 kts | 105° |
| 2026-05-03 23:42 | 18.26145 | -66.33734 | 31062 ft | 318 kts | 105° |
| 2026-05-03 23:42 | 18.24915 | -66.29263 | 31058 ft | 318 kts | 105° |
| 2026-05-03 23:43 | 18.23682 | -66.24791 | 31055 ft | 318 kts | 105° |
| 2026-05-03 23:43 | 18.22449 | -66.20325 | 31055 ft | 317 kts | 105° |
| 2026-05-03 23:44 | 18.21216 | -66.15863 | 31054 ft | 317 kts | 105° |
| 2026-05-03 23:44 | 18.19985 | -66.11404 | 31051 ft | 317 kts | 105° |
| 2026-05-03 23:45 | 18.18757 | -66.06971 | 31050 ft | 317 kts | 105° |
| 2026-05-03 23:45 | 18.17523 | -66.02516 | 31046 ft | 317 kts | 105° |
| 2026-05-03 23:46 | 18.16289 | -65.98068 | 31052 ft | 317 kts | 105° |
| 2026-05-03 23:46 | 18.15054 | -65.93617 | 31056 ft | 317 kts | 105° |
| 2026-05-03 23:47 | 18.13825 | -65.89192 | 31054 ft | 317 kts | 105° |
| 2026-05-03 23:47 | 18.12587 | -65.84743 | 31053 ft | 316 kts | 105° |
| 2026-05-03 23:48 | 18.11351 | -65.80304 | 31057 ft | 316 kts | 105° |
| 2026-05-03 23:48 | 18.10113 | -65.75860 | 31056 ft | 316 kts | 105° |
| 2026-05-03 23:49 | 18.08885 | -65.71457 | 31056 ft | 316 kts | 105° |
| 2026-05-03 23:49 | 18.07648 | -65.67021 | 31053 ft | 316 kts | 106° |
| 2026-05-03 23:50 | 18.06618 | -65.63339 | 31054 ft | 316 kts | 106° |
| 2026-05-03 23:50 | 18.05175 | -65.58163 | 31051 ft | 315 kts | 106° |
| 2026-05-03 23:51 | 18.03930 | -65.53743 | 31053 ft | 315 kts | 105° |
| 2026-05-03 23:51 | 18.02689 | -65.49347 | 31052 ft | 315 kts | 106° |
| 2026-05-03 23:52 | 18.01456 | -65.44921 | 31049 ft | 315 kts | 106° |
| 2026-05-03 23:52 | 18.00212 | -65.40499 | 31052 ft | 315 kts | 106° |
| 2026-05-03 23:53 | 17.98971 | -65.36078 | 31051 ft | 315 kts | 106° |
| 2026-05-03 23:53 | 17.97733 | -65.31680 | 31051 ft | 315 kts | 106° |
| 2026-05-03 23:54 | 17.96489 | -65.27262 | 31054 ft | 315 kts | 106° |
| 2026-05-03 23:54 | 17.95245 | -65.22848 | 31052 ft | 315 kts | 106° |
| 2026-05-03 23:55 | 17.94008 | -65.18461 | 31050 ft | 315 kts | 106° |
| 2026-05-03 23:55 | 17.92763 | -65.14053 | 31049 ft | 315 kts | 106° |
| 2026-05-03 23:56 | 17.91517 | -65.09647 | 31050 ft | 315 kts | 106° |
| 2026-05-03 23:56 | 17.90271 | -65.05241 | 31053 ft | 314 kts | 107° |
| 2026-05-03 23:57 | 17.89023 | -65.00831 | 31054 ft | 314 kts | 107° |
| 2026-05-03 23:57 | 17.87774 | -64.96429 | 31057 ft | 314 kts | 107° |
| 2026-05-03 23:58 | 17.86535 | -64.92059 | 30997 ft | 316 kts | 107° |
| 2026-05-03 23:58 | 17.85898 | -64.89818 | 30792 ft | 323 kts | 107° |
| 2026-05-03 23:58 | 17.85250 | -64.87540 | 30589 ft | 328 kts | 106° |
| 2026-05-03 23:59 | 17.84600 | -64.85224 | 30389 ft | 332 kts | 106° |
| 2026-05-03 23:59 | 17.83934 | -64.82887 | 30191 ft | 335 kts | 107° |
| 2026-05-03 23:59 | 17.83261 | -64.80547 | 29963 ft | 334 kts | 107° |
| 2026-05-03 23:59 | 17.82597 | -64.78214 | 29720 ft | 334 kts | 106° |
| 2026-05-04 00:00 | 17.82158 | -64.76666 | 29566 ft | 335 kts | 106° |
| 2026-05-04 00:00 | 17.81274 | -64.73557 | 29250 ft | 335 kts | 107° |
| 2026-05-04 00:00 | 17.80822 | -64.71975 | 29094 ft | 335 kts | 107° |
| 2026-05-04 00:00 | 17.79935 | -64.68868 | 28785 ft | 335 kts | 106° |
| 2026-05-04 00:01 | 17.79483 | -64.67283 | 28624 ft | 335 kts | 106° |
| 2026-05-04 00:01 | 17.78821 | -64.64964 | 28398 ft | 335 kts | 106° |
| 2026-05-04 00:01 | 17.78151 | -64.62619 | 28168 ft | 335 kts | 106° |
| 2026-05-04 00:01 | 17.77481 | -64.60274 | 27949 ft | 335 kts | 106° |
| 2026-05-04 00:02 | 17.76811 | -64.57931 | 27732 ft | 335 kts | 106° |
| 2026-05-04 00:02 | 17.76142 | -64.55589 | 27501 ft | 335 kts | 106° |
| 2026-05-04 00:02 | 17.75474 | -64.53253 | 27276 ft | 334 kts | 106° |
| 2026-05-04 00:02 | 17.74803 | -64.50913 | 27059 ft | 334 kts | 106° |
| 2026-05-04 00:03 | 17.74135 | -64.48579 | 26842 ft | 334 kts | 106° |
| 2026-05-04 00:03 | 17.73466 | -64.46242 | 26628 ft | 334 kts | 106° |
| 2026-05-04 00:03 | 17.72805 | -64.43940 | 26415 ft | 334 kts | 106° |
| 2026-05-04 00:03 | 17.72137 | -64.41611 | 26273 ft | 331 kts | 106° |
| 2026-05-04 00:04 | 17.71473 | -64.39305 | 26154 ft | 329 kts | 105° |
| 2026-05-04 00:04 | 17.70824 | -64.37018 | 26036 ft | 327 kts | 105° |
| 2026-05-04 00:04 | 17.70165 | -64.34743 | 25920 ft | 325 kts | 106° |
| 2026-05-04 00:04 | 17.69503 | -64.32466 | 25733 ft | 326 kts | 106° |
| 2026-05-04 00:05 | 17.68849 | -64.30180 | 25503 ft | 326 kts | 105° |
| 2026-05-04 00:05 | 17.68203 | -64.27925 | 25274 ft | 320 kts | 105° |
| 2026-05-04 00:05 | 17.67566 | -64.25711 | 25044 ft | 314 kts | 105° |
| 2026-05-04 00:05 | 17.66943 | -64.23546 | 24812 ft | 306 kts | 105° |
| 2026-05-04 00:06 | 17.66335 | -64.21428 | 24585 ft | 299 kts | 105° |
| 2026-05-04 00:06 | 17.65742 | -64.19365 | 24353 ft | 293 kts | 105° |
| 2026-05-04 00:06 | 17.65158 | -64.17331 | 24136 ft | 289 kts | 105° |
| 2026-05-04 00:06 | 17.64586 | -64.15350 | 23920 ft | 286 kts | 104° |
| 2026-05-04 00:07 | 17.64009 | -64.13358 | 23700 ft | 284 kts | 105° |
| 2026-05-04 00:07 | 17.63440 | -64.11383 | 23451 ft | 282 kts | 104° |
| 2026-05-04 00:07 | 17.62876 | -64.09417 | 23250 ft | 279 kts | 104° |
| 2026-05-04 00:07 | 17.62319 | -64.07492 | 23142 ft | 274 kts | 105° |
| 2026-05-04 00:08 | 17.61775 | -64.05620 | 23032 ft | 263 kts | 106° |
| 2026-05-04 00:08 | 17.61245 | -64.03835 | 22951 ft | 250 kts | 106° |
| 2026-05-04 00:08 | 17.60736 | -64.02105 | 22703 ft | 247 kts | 105° |
| 2026-05-04 00:08 | 17.60248 | -64.00384 | 22450 ft | 245 kts | 105° |
| 2026-05-04 00:09 | 17.59766 | -63.98697 | 22203 ft | 244 kts | 105° |
| 2026-05-04 00:09 | 17.59274 | -63.96997 | 21951 ft | 243 kts | 106° |
| 2026-05-04 00:09 | 17.58781 | -63.95305 | 21705 ft | 242 kts | 106° |
| 2026-05-04 00:09 | 17.58293 | -63.93613 | 21460 ft | 242 kts | 106° |
| 2026-05-04 00:10 | 17.57801 | -63.91918 | 21217 ft | 242 kts | 106° |
| 2026-05-04 00:10 | 17.57313 | -63.90236 | 20974 ft | 241 kts | 107° |
| 2026-05-04 00:10 | 17.56825 | -63.88554 | 20736 ft | 241 kts | 107° |
| 2026-05-04 00:10 | 17.56339 | -63.86876 | 20496 ft | 240 kts | 107° |
| 2026-05-04 00:11 | 17.55854 | -63.85204 | 20258 ft | 240 kts | 106° |
| 2026-05-04 00:11 | 17.55369 | -63.83531 | 20023 ft | 239 kts | 107° |
| 2026-05-04 00:11 | 17.54884 | -63.81863 | 19792 ft | 239 kts | 107° |
| 2026-05-04 00:11 | 17.54406 | -63.80216 | 19562 ft | 239 kts | 107° |
| 2026-05-04 00:12 | 17.53921 | -63.78550 | 19325 ft | 239 kts | 107° |
| 2026-05-04 00:12 | 17.53436 | -63.76882 | 19106 ft | 239 kts | 107° |
| 2026-05-04 00:12 | 17.52952 | -63.75217 | 18880 ft | 238 kts | 107° |
| 2026-05-04 00:12 | 17.52469 | -63.73554 | 18658 ft | 237 kts | 108° |
| 2026-05-04 00:13 | 17.52002 | -63.71952 | 18431 ft | 222 kts | 108° |
| 2026-05-04 00:13 | 17.51566 | -63.70447 | 18168 ft | 209 kts | 108° |
| 2026-05-04 00:13 | 17.51153 | -63.69019 | 17894 ft | 200 kts | 107° |
| 2026-05-04 00:13 | 17.50757 | -63.67660 | 17631 ft | 195 kts | 107° |
| 2026-05-04 00:14 | 17.50368 | -63.66294 | 17367 ft | 191 kts | 104° |
| 2026-05-04 00:14 | 17.50079 | -63.64959 | 17116 ft | 189 kts | 103° |
| 2026-05-04 00:14 | 17.49769 | -63.63632 | 16864 ft | 187 kts | 104° |
| 2026-05-04 00:14 | 17.49467 | -63.62315 | 16618 ft | 185 kts | 103° |
| 2026-05-04 00:15 | 17.49173 | -63.61010 | 16374 ft | 183 kts | 103° |
| 2026-05-04 00:15 | 17.48882 | -63.59718 | 16135 ft | 182 kts | 103° |
| 2026-05-04 00:15 | 17.48593 | -63.58435 | 15895 ft | 180 kts | 103° |
| 2026-05-04 00:15 | 17.48306 | -63.57161 | 15657 ft | 179 kts | 103° |
| 2026-05-04 00:16 | 17.48020 | -63.55898 | 15422 ft | 177 kts | 103° |
| 2026-05-04 00:16 | 17.47738 | -63.54647 | 15188 ft | 176 kts | 103° |
| 2026-05-04 00:16 | 17.47457 | -63.53403 | 14952 ft | 175 kts | 103° |
| 2026-05-04 00:16 | 17.47189 | -63.52166 | 14726 ft | 173 kts | 102° |
| 2026-05-04 00:17 | 17.46909 | -63.50941 | 14504 ft | 172 kts | 104° |
| 2026-05-04 00:17 | 17.46623 | -63.49724 | 14270 ft | 171 kts | 103° |
| 2026-05-04 00:17 | 17.46364 | -63.48531 | 14052 ft | 170 kts | 101° |
| 2026-05-04 00:17 | 17.46105 | -63.47332 | 13825 ft | 169 kts | 102° |
| 2026-05-04 00:18 | 17.45832 | -63.46140 | 13569 ft | 167 kts | 102° |
| 2026-05-04 00:18 | 17.45561 | -63.44957 | 13314 ft | 166 kts | 101° |
| 2026-05-04 00:18 | 17.45298 | -63.43782 | 13063 ft | 165 kts | 102° |
| 2026-05-04 00:18 | 17.45030 | -63.42613 | 12815 ft | 164 kts | 102° |
| 2026-05-04 00:19 | 17.44765 | -63.41451 | 12571 ft | 164 kts | 102° |
| 2026-05-04 00:19 | 17.44503 | -63.40294 | 12324 ft | 163 kts | 102° |
| 2026-05-04 00:19 | 17.44246 | -63.39159 | 12085 ft | 162 kts | 103° |
| 2026-05-04 00:19 | 17.43987 | -63.38013 | 11845 ft | 161 kts | 102° |
| 2026-05-04 00:20 | 17.43729 | -63.36873 | 11608 ft | 161 kts | 103° |
| 2026-05-04 00:20 | 17.43471 | -63.35734 | 11371 ft | 159 kts | 103° |
| 2026-05-04 00:20 | 17.43215 | -63.34607 | 11136 ft | 158 kts | 103° |
| 2026-05-04 00:20 | 17.42960 | -63.33483 | 10900 ft | 158 kts | 103° |
| 2026-05-04 00:21 | 17.42710 | -63.32380 | 10670 ft | 157 kts | 103° |
| 2026-05-04 00:21 | 17.42458 | -63.31269 | 10443 ft | 157 kts | 103° |
| 2026-05-04 00:21 | 17.42207 | -63.30161 | 10210 ft | 156 kts | 103° |
| 2026-05-04 00:21 | 17.41956 | -63.29060 | 9981 ft | 155 kts | 103° |
| 2026-05-04 00:22 | 17.41707 | -63.27963 | 9737 ft | 154 kts | 104° |
| 2026-05-04 00:22 | 17.41460 | -63.26875 | 9487 ft | 153 kts | 103° |
| 2026-05-04 00:22 | 17.41215 | -63.25798 | 9238 ft | 151 kts | 103° |
| 2026-05-04 00:22 | 17.40973 | -63.24734 | 8992 ft | 150 kts | 103° |
| 2026-05-04 00:23 | 17.40733 | -63.23678 | 8750 ft | 149 kts | 103° |
| 2026-05-04 00:23 | 17.40495 | -63.22630 | 8503 ft | 147 kts | 103° |
| 2026-05-04 00:23 | 17.40259 | -63.21591 | 8254 ft | 146 kts | 103° |
| 2026-05-04 00:23 | 17.40023 | -63.20558 | 8021 ft | 145 kts | 103° |
| 2026-05-04 00:24 | 17.39790 | -63.19533 | 7780 ft | 145 kts | 103° |
| 2026-05-04 00:24 | 17.39558 | -63.18512 | 7545 ft | 144 kts | 103° |
| 2026-05-04 00:24 | 17.39327 | -63.17497 | 7311 ft | 143 kts | 103° |
| 2026-05-04 00:24 | 17.39099 | -63.16500 | 7082 ft | 142 kts | 103° |
| 2026-05-04 00:25 | 17.38870 | -63.15494 | 6849 ft | 141 kts | 103° |
| 2026-05-04 00:25 | 17.38644 | -63.14498 | 6621 ft | 140 kts | 103° |
| 2026-05-04 00:25 | 17.38419 | -63.13511 | 6424 ft | 138 kts | 102° |
| 2026-05-04 00:25 | 17.38201 | -63.12555 | 6295 ft | 132 kts | 103° |
| 2026-05-04 00:26 | 17.37974 | -63.11564 | 6181 ft | 150 kts | 103° |
| 2026-05-04 00:26 | 17.37719 | -63.10460 | 6075 ft | 162 kts | 103° |
| 2026-05-04 00:26 | 17.37455 | -63.09283 | 5965 ft | 169 kts | 102° |
| 2026-05-04 00:26 | 17.37190 | -63.08087 | 5855 ft | 172 kts | 103° |
| 2026-05-04 00:27 | 17.36909 | -63.06864 | 5738 ft | 173 kts | 103° |
| 2026-05-04 00:27 | 17.36626 | -63.05635 | 5621 ft | 174 kts | 103° |
| 2026-05-04 00:27 | 17.36341 | -63.04395 | 5501 ft | 175 kts | 103° |
| 2026-05-04 00:27 | 17.36060 | -63.03159 | 5382 ft | 175 kts | 103° |
| 2026-05-04 00:28 | 17.35769 | -63.01921 | 5276 ft | 175 kts | 104° |
| 2026-05-04 00:28 | 17.35312 | -63.00735 | 5094 ft | 179 kts | 121° |
| 2026-05-04 00:28 | 17.34475 | -62.99737 | 4830 ft | 185 kts | 138° |
| 2026-05-04 00:28 | 17.33393 | -62.99086 | 4554 ft | 174 kts | 153° |
| 2026-05-04 00:29 | 17.32317 | -62.98586 | 4290 ft | 169 kts | 151° |
| 2026-05-04 00:29 | 17.31272 | -62.98078 | 4040 ft | 162 kts | 151° |
| 2026-05-04 00:29 | 17.30271 | -62.97596 | 3802 ft | 156 kts | 151° |
| 2026-05-04 00:29 | 17.29306 | -62.97141 | 3576 ft | 146 kts | 152° |
| 2026-05-04 00:30 | 17.28400 | -62.96715 | 3360 ft | 140 kts | 151° |
| 2026-05-04 00:30 | 17.27535 | -62.96295 | 3198 ft | 131 kts | 145° |
| 2026-05-04 00:30 | 17.26784 | -62.95762 | 3195 ft | 136 kts | 141° |
| 2026-05-04 00:30 | 17.25952 | -62.95189 | 3206 ft | 148 kts | 142° |
| 2026-05-04 00:31 | 17.25070 | -62.94589 | 3214 ft | 154 kts | 142° |
| 2026-05-04 00:31 | 17.24159 | -62.93966 | 3212 ft | 158 kts | 141° |
| 2026-05-04 00:31 | 17.23239 | -62.93322 | 3207 ft | 159 kts | 142° |
| 2026-05-04 00:31 | 17.22318 | -62.92690 | 3209 ft | 158 kts | 143° |
| 2026-05-04 00:32 | 17.21441 | -62.92020 | 3208 ft | 150 kts | 132° |
| 2026-05-04 00:32 | 17.20862 | -62.91203 | 3205 ft | 132 kts | 116° |
| 2026-05-04 00:32 | 17.20561 | -62.90321 | 3160 ft | 128 kts | 101° |
| 2026-05-04 00:32 | 17.20504 | -62.89384 | 3036 ft | 131 kts | 87° |
| 2026-05-04 00:33 | 17.20712 | -62.88444 | 2899 ft | 135 kts | 71° |
| 2026-05-04 00:33 | 17.21698 | -62.86772 | 2609 ft | 137 kts | 62° |
| 2026-05-04 00:33 | 17.22227 | -62.85929 | 2447 ft | 139 kts | 60° |
| 2026-05-04 00:34 | 17.22760 | -62.85087 | 2298 ft | 138 kts | 59° |
| 2026-05-04 00:34 | 17.23299 | -62.84236 | 2143 ft | 141 kts | 59° |
| 2026-05-04 00:34 | 17.23833 | -62.83392 | 2010 ft | 136 kts | 59° |
| 2026-05-04 00:34 | 17.24341 | -62.82595 | 1995 ft | 128 kts | 60° |
| 2026-05-04 00:35 | 17.24824 | -62.81835 | 1992 ft | 124 kts | 60° |
| 2026-05-04 00:35 | 17.25281 | -62.81112 | 2007 ft | 105 kts | 60° |
| 2026-05-04 00:35 | 17.25642 | -62.80549 | 2008 ft | 87 kts | 60° |
| 2026-05-04 00:35 | 17.25973 | -62.80031 | 1966 ft | 86 kts | 60° |
| 2026-05-04 00:36 | 17.26308 | -62.79498 | 1859 ft | 90 kts | 60° |
| 2026-05-04 00:36 | 17.26655 | -62.78947 | 1732 ft | 92 kts | 63° |
| 2026-05-04 00:36 | 17.27002 | -62.78368 | 1590 ft | 96 kts | 63° |
| 2026-05-04 00:36 | 17.27372 | -62.77778 | 1445 ft | 97 kts | 62° |
| 2026-05-04 00:37 | 17.27733 | -62.77214 | 1300 ft | 89 kts | 63° |
| 2026-05-04 00:37 | 17.28093 | -62.76702 | 1179 ft | 87 kts | 56° |
| 2026-05-04 00:37 | 17.28451 | -62.76212 | 1069 ft | 86 kts | 62° |
| 2026-05-04 00:37 | 17.28761 | -62.75660 | 968 ft | 91 kts | 64° |
| 2026-05-04 00:38 | 17.29104 | -62.75126 | 782 ft | 84 kts | 63° |
| 2026-05-04 00:38 | 17.29415 | -62.74623 | 593 ft | 78 kts | 64° |
| 2026-05-04 00:38 | 17.29724 | -62.74135 | 549 ft | 84 kts | 60° |
| 2026-05-04 00:38 | 17.30049 | -62.73587 | 459 ft | 91 kts | 60° |
| 2026-05-04 00:39 | 17.30380 | -62.73060 | 290 ft | 82 kts | 59° |
| 2026-05-04 00:39 | 17.30664 | -62.72595 | 182 ft | 66 kts | 62° |
| 2026-05-04 00:39 | 17.30877 | -62.72255 | 169 ft | 46 kts | 57° |
| 2026-05-04 00:39 | 17.31019 | -62.72026 | 169 ft | 30 kts | 63° |
| 2026-05-04 00:40 | 17.31061 | -62.71833 | 167 ft | 25 kts | 83° |
| 2026-05-04 00:40 | 17.31069 | -62.71779 | 167 ft | 0 kts | 80° |
| 2026-05-04 00:41 | 17.31069 | -62.71777 | 167 ft | 2 kts | 80° |
| 2026-05-04 00:41 | 17.31081 | -62.71721 | 166 ft | 12 kts | 65° |
| 2026-05-04 00:41 | 17.31123 | -62.71635 | 166 ft | 14 kts | 96° |
| 2026-05-04 00:41 | 17.31047 | -62.71573 | 165 ft | 15 kts | 147° |
| 2026-05-04 00:42 | 17.31026 | -62.71558 | 166 ft | 0 kts | 146° |